Time;durP1;ratioP1;P1;durP2;ratioP2;P2;SDS_P1;SDS_P2;PMS_P1;PMS_P2;Temp;Humidity;BMP_temperature;BMP_pressure;BME280_temperature;BME280_humidity;BME280_pressure;Samples;Min_cycle;Max_cycle;Signal;HPM_P1;HPM_P2
2024/02/20 00:11:12;;;;;;;30.77;5.38;;;;;;;7.89;100.00;101448.03;4994427;28;20033;-95
2024/02/20 00:13:40;;;;;;;31.23;5.40;;;;;;;7.85;100.00;101451.81;5043152;28;20045;-95
2024/02/20 00:16:06;;;;;;;28.50;4.80;;;;;;;7.87;100.00;101457.81;5032213;28;20028;-93
2024/02/20 00:28:22;;;;;;;35.72;5.78;;;;;;;7.94;100.00;101462.59;5050842;28;20043;-95
2024/02/20 00:31:15;;;;;;;26.95;4.78;;;;;;;7.93;100.00;101450.34;4929624;28;20058;-96
2024/02/20 00:34:37;;;;;;;29.42;4.82;;;;;;;8.03;100.00;101447.94;4967664;28;20077;-96
2024/02/20 00:37:17;;;;;;;24.75;4.07;;;;;;;8.00;100.00;101445.53;4944361;28;20044;-95
2024/02/20 00:40:31;;;;;;;26.05;4.70;;;;;;;8.08;100.00;101447.63;4933221;28;20027;-95
2024/02/20 00:44:15;;;;;;;;;;;;;;;;;;;;;
2024/02/20 00:47:45;;;;;;;25.52;4.45;;;;;;;8.11;100.00;101434.25;5003865;28;20071;-96
2024/02/20 00:54:45;;;;;;;27.30;5.20;;;;;;;8.03;100.00;101421.63;4985727;28;20042;-96
2024/02/20 00:57:57;;;;;;;;;;;;;;;;;;;;;
2024/02/20 01:05:56;;;;;;;29.23;4.95;;;;;;;8.19;100.00;101407.41;4945826;28;20039;-96
2024/02/20 01:09:57;;;;;;;27.77;3.75;;;;;;;8.19;100.00;101391.59;4985549;28;20082;-96
2024/02/20 01:13:09;;;;;;;25.90;3.85;;;;;;;8.16;100.00;101381.28;4973234;28;20142;-96
2024/02/20 01:22:41;;;;;;;22.15;3.40;;;;;;;8.22;100.00;101369.50;4933812;28;20110;-96
2024/02/20 01:25:44;;;;;;;21.13;3.75;;;;;;;8.23;100.00;101363.28;4988323;28;20066;-96
2024/02/20 01:28:34;;;;;;;25.90;3.40;;;;;;;8.29;100.00;101347.03;4955852;28;20031;-96
2024/02/20 01:31:22;;;;;;;23.73;3.83;;;;;;;8.41;100.00;101330.38;4970203;28;20038;-96
2024/02/20 01:33:57;;;;;;;16.75;2.85;;;;;;;8.44;100.00;101330.16;5046960;28;20136;-96
2024/02/20 01:36:38;;;;;;;20.42;3.35;;;;;;;8.48;100.00;101322.88;4997474;28;20073;-96
2024/02/20 01:39:22;;;;;;;21.40;3.08;;;;;;;8.56;100.00;101317.94;5028600;28;20053;-96
2024/02/20 01:42:29;;;;;;;25.33;2.80;;;;;;;8.65;100.00;101307.69;5008256;28;20083;-96
2024/02/20 01:45:10;;;;;;;19.73;3.10;;;;;;;8.64;100.00;101298.94;5037797;28;20172;-96
2024/02/20 01:48:03;;;;;;;19.73;2.40;;;;;;;8.79;100.00;101311.97;5024349;28;20029;-94
2024/02/20 01:50:35;;;;;;;20.80;2.58;;;;;;;8.81;100.00;101308.28;5023147;28;20037;-96
2024/02/20 01:56:35;;;;;;;21.48;2.45;;;;;;;8.99;100.00;101304.41;5054282;28;20033;-96
2024/02/20 01:59:01;;;;;;;26.17;3.28;;;;;;;9.00;100.00;101292.91;5018095;28;20053;-96
2024/02/20 02:01:30;;;;;;;11.45;2.25;;;;;;;9.06;100.00;101308.28;5019764;28;20066;-96
2024/02/20 02:08:14;;;;;;;12.38;2.40;;;;;;;9.26;100.00;101319.13;5013636;28;20064;-93
2024/02/20 02:11:39;;;;;;;9.98;2.28;;;;;;;9.27;100.00;101310.28;5021792;28;20069;-96
2024/02/20 02:19:37;;;;;;;13.13;2.15;;;;;;;9.39;100.00;101295.31;4968555;28;20183;-96
2024/02/20 02:25:59;;;;;;;8.80;1.98;;;;;;;9.48;100.00;101289.34;4947826;28;20124;-94
2024/02/20 02:29:32;;;;;;;;;;;;;;;;;;;;;
2024/02/20 02:33:20;;;;;;;4.55;1.25;;;;;;;9.43;100.00;101279.16;5058525;28;20060;-96
2024/02/20 02:36:17;;;;;;;10.63;1.42;;;;;;;9.45;100.00;101273.75;5022704;28;20175;-96
2024/02/20 02:39:14;;;;;;;8.80;1.45;;;;;;;9.42;100.00;101261.63;4999669;28;20047;-96
2024/02/20 02:41:42;;;;;;;9.70;1.58;;;;;;;9.42;100.00;101255.50;5013860;28;20048;-96
2024/02/20 02:44:27;;;;;;;7.70;1.30;;;;;;;9.43;100.00;101257.19;5048955;28;20029;-96
2024/02/20 02:47:15;;;;;;;8.18;1.83;;;;;;;9.46;100.00;101248.22;5024409;28;20029;-96
2024/02/20 02:49:48;;;;;;;6.82;1.63;;;;;;;9.38;100.00;101249.63;5035305;28;20033;-96
2024/02/20 02:52:16;;;;;;;5.25;1.25;;;;;;;9.42;100.00;101245.81;5059891;28;20086;-94
2024/02/20 02:54:50;;;;;;;5.50;1.73;;;;;;;9.37;100.00;101221.56;5028313;28;20033;-92
2024/02/20 02:57:40;;;;;;;8.52;1.58;;;;;;;9.43;100.00;101231.66;5034092;28;20033;-96
2024/02/20 03:00:13;;;;;;;6.43;1.45;;;;;;;9.32;100.00;101213.16;5036798;28;20041;-96
2024/02/20 03:02:50;;;;;;;7.20;1.40;;;;;;;9.34;100.00;101216.53;5015659;28;20033;-96
2024/02/20 03:05:23;;;;;;;4.70;1.25;;;;;;;9.37;100.00;101216.28;5033307;28;20059;-95
2024/02/20 03:08:48;;;;;;;5.20;1.17;;;;;;;9.39;100.00;101208.25;5049653;28;20117;-96
2024/02/20 03:14:56;;;;;;;4.53;1.00;;;;;;;9.40;100.00;101207.28;4995749;28;20118;-96
2024/02/20 03:17:25;;;;;;;7.82;1.65;;;;;;;9.37;100.00;101199.59;5045370;28;20028;-96
2024/02/20 03:20:04;;;;;;;4.75;1.20;;;;;;;9.33;100.00;101188.47;5040905;28;20465;-96
2024/02/20 03:22:50;;;;;;;3.90;1.25;;;;;;;9.35;100.00;101186.53;5020816;28;20044;-96
2024/02/20 03:25:33;;;;;;;5.25;1.20;;;;;;;9.35;100.00;101172.53;5041464;28;20043;-96
2024/02/20 03:32:09;;;;;;;7.53;1.20;;;;;;;9.21;100.00;101148.03;5039926;28;20041;-93
2024/02/20 03:35:23;;;;;;;2.58;0.98;;;;;;;9.25;100.00;101143.38;5028208;28;20040;-94
2024/02/20 03:38:13;;;;;;;3.05;1.00;;;;;;;9.23;100.00;101132.06;5050064;28;20562;-95
2024/02/20 03:40:39;;;;;;;4.05;1.40;;;;;;;9.17;100.00;101128.13;5016386;28;20041;-95
2024/02/20 03:43:14;;;;;;;3.58;1.25;;;;;;;9.24;100.00;101139.03;5015706;28;20057;-96
2024/02/20 03:46:05;;;;;;;1.80;0.88;;;;;;;9.25;100.00;101140.72;5018537;28;20143;-96
2024/02/20 03:49:07;;;;;;;1.95;0.85;;;;;;;9.22;100.00;101114.59;5053469;28;20040;-96
2024/02/20 03:51:46;;;;;;;3.60;1.08;;;;;;;9.18;100.00;101106.91;5034014;28;20048;-96
2024/02/20 03:54:20;;;;;;;2.10;0.90;;;;;;;9.20;100.00;101122.63;5032023;28;20045;-96
2024/02/20 03:59:58;;;;;;;2.50;0.77;;;;;;;9.16;100.00;101118.50;5036993;28;20053;-96
2024/02/20 04:02:29;;;;;;;1.42;0.52;;;;;;;9.21;100.00;101118.16;5041753;28;20060;-96
2024/02/20 04:05:20;;;;;;;2.35;0.90;;;;;;;9.22;100.00;101104.84;5023226;28;20062;-96
2024/02/20 04:07:46;;;;;;;2.92;0.77;;;;;;;9.15;100.00;101127.41;5027397;28;20036;-96
2024/02/20 04:10:20;;;;;;;1.05;0.65;;;;;;;9.18;100.00;101135.06;5036371;28;20033;-96
2024/02/20 04:12:49;;;;;;;1.08;0.60;;;;;;;9.16;100.00;101119.38;5014353;28;20059;-96
2024/02/20 04:15:16;;;;;;;3.65;0.80;;;;;;;9.15;100.00;101133.53;5022584;28;20420;-96
2024/02/20 04:17:51;;;;;;;4.18;0.88;;;;;;;9.17;100.00;101142.13;5023300;28;20039;-96
2024/02/20 04:20:17;;;;;;;1.75;0.55;;;;;;;9.09;100.00;101135.78;5023306;28;20051;-96
2024/02/20 04:22:44;;;;;;;3.58;0.65;;;;;;;9.11;100.00;101078.50;5031879;28;20041;-96
2024/02/20 04:25:10;;;;;;;1.65;0.60;;;;;;;9.02;100.00;101058.94;5030293;28;20393;-89
2024/02/20 04:27:51;;;;;;;0.50;0.47;;;;;;;9.10;100.00;101064.47;5025214;28;20078;-96
2024/02/20 04:30:23;;;;;;;2.45;0.50;;;;;;;9.03;100.00;101092.28;5030930;28;20102;-96
2024/02/20 04:32:57;;;;;;;1.25;0.60;;;;;;;9.06;100.00;101105.22;5033069;28;20482;-96
2024/02/20 04:35:32;;;;;;;5.20;0.45;;;;;;;9.01;100.00;101107.38;5040280;28;20102;-96
2024/02/20 04:37:59;;;;;;;1.70;0.40;;;;;;;9.05;100.00;101103.53;5031038;28;20148;-96
2024/02/20 04:40:53;;;;;;;2.80;0.30;;;;;;;9.10;100.00;101088.19;5022970;28;20064;-96
2024/02/20 04:43:23;;;;;;;3.85;1.05;;;;;;;9.02;100.00;101091.44;5033709;28;20037;-96
2024/02/20 04:45:52;;;;;;;6.82;0.63;;;;;;;9.04;100.00;101080.75;5022813;28;20032;-96
2024/02/20 04:48:21;;;;;;;2.58;0.40;;;;;;;9.02;100.00;101061.56;5023802;28;20033;-96
2024/02/20 04:50:50;;;;;;;1.20;0.40;;;;;;;9.10;100.00;101074.16;5014006;28;20036;-96
2024/02/20 04:53:20;;;;;;;1.50;0.45;;;;;;;9.01;100.00;101041.44;5028884;28;20033;-95
2024/02/20 04:55:47;;;;;;;1.27;0.40;;;;;;;8.99;100.00;101049.47;5040649;28;20028;-96
2024/02/20 04:58:18;;;;;;;4.07;0.60;;;;;;;9.04;100.00;101052.59;5029683;28;20496;-96
2024/02/20 05:00:44;;;;;;;1.52;0.30;;;;;;;9.01;100.00;101042.28;5025331;28;20123;-96
2024/02/20 05:03:10;;;;;;;2.15;0.50;;;;;;;8.99;100.00;100998.53;5039151;28;20037;-96
2024/02/20 05:05:37;;;;;;;6.10;0.73;;;;;;;9.01;100.00;100999.25;5018630;28;20032;-96
2024/02/20 05:08:04;;;;;;;4.40;0.80;;;;;;;9.07;100.00;100996.13;5035660;28;20561;-96
2024/02/20 05:10:30;;;;;;;4.38;0.60;;;;;;;9.02;100.00;100988.59;5025076;28;20045;-96
2024/02/20 05:12:59;;;;;;;4.07;0.70;;;;;;;9.08;100.00;101007.53;5057252;28;20040;-96
2024/02/20 05:15:25;;;;;;;6.72;0.60;;;;;;;9.04;100.00;101020.09;5031341;28;20037;-96
2024/02/20 05:17:51;;;;;;;6.47;1.27;;;;;;;9.05;100.00;101012.06;5022804;28;20044;-95
2024/02/20 05:20:17;;;;;;;4.53;0.90;;;;;;;9.05;100.00;100993.63;5028439;28;20048;-96
2024/02/20 05:22:43;;;;;;;3.85;0.57;;;;;;;9.06;100.00;101005.84;5043184;28;20048;-96
2024/02/20 05:25:10;;;;;;;4.80;0.50;;;;;;;9.08;100.00;101012.81;5009584;28;20037;-96
2024/02/20 05:27:36;;;;;;;5.13;1.13;;;;;;;9.09;100.00;101011.84;5027107;28;20120;-94
2024/02/20 05:30:03;;;;;;;6.47;0.50;;;;;;;9.09;100.00;101015.31;5020969;28;20521;-95
2024/02/20 05:32:31;;;;;;;4.93;0.93;;;;;;;9.11;100.00;101002.00;5056673;28;20037;-96
2024/02/20 05:34:57;;;;;;;9.88;1.25;;;;;;;9.09;100.00;100981.03;5049516;28;20029;-96
2024/02/20 05:37:24;;;;;;;2.72;0.75;;;;;;;9.09;100.00;100983.69;5036437;28;20045;-96
2024/02/20 05:39:50;;;;;;;3.42;0.90;;;;;;;9.10;100.00;100977.44;5040177;28;20044;-96
2024/02/20 05:42:17;;;;;;;5.25;0.80;;;;;;;9.08;100.00;100984.63;5032139;28;20044;-96
2024/02/20 05:44:45;;;;;;;6.10;1.25;;;;;;;9.03;100.00;100979.72;5045879;28;20047;-96
2024/02/20 05:47:12;;;;;;;6.45;1.25;;;;;;;9.03;100.00;100971.78;5033490;28;20066;-96
2024/02/20 05:49:38;;;;;;;8.98;0.98;;;;;;;9.01;100.00;100967.63;5007298;28;20035;-96
2024/02/20 05:52:04;;;;;;;5.50;1.02;;;;;;;9.02;100.00;100964.00;5049123;28;20056;-96
2024/02/20 05:54:30;;;;;;;12.15;1.88;;;;;;;9.01;100.00;100954.44;5041317;28;20032;-94
2024/02/20 05:56:57;;;;;;;9.32;1.20;;;;;;;8.97;100.00;100935.38;5008507;28;20136;-94
2024/02/20 05:59:23;;;;;;;12.38;1.50;;;;;;;8.99;100.00;100961.63;5016982;28;20576;-93
2024/02/20 06:01:49;;;;;;;10.45;1.52;;;;;;;8.97;100.00;100961.72;5041732;28;20052;-96
2024/02/20 06:04:18;;;;;;;11.25;2.17;;;;;;;8.96;100.00;100960.06;5037068;28;20068;-96
2024/02/20 06:06:50;;;;;;;10.63;1.42;;;;;;;8.99;100.00;100956.34;5026739;28;20025;-96
2024/02/20 06:09:16;;;;;;;9.13;1.55;;;;;;;8.99;100.00;100948.44;5023337;28;20029;-96
2024/02/20 06:11:42;;;;;;;10.77;1.95;;;;;;;8.97;100.00;100937.16;5014771;28;20040;-96
2024/02/20 06:14:09;;;;;;;13.27;1.88;;;;;;;8.89;100.00;100935.97;5032000;28;20045;-96
2024/02/20 06:16:35;;;;;;;8.38;1.70;;;;;;;8.92;100.00;100934.88;5039562;28;20139;-96
2024/02/20 06:19:01;;;;;;;12.40;2.03;;;;;;;8.89;100.00;100938.63;5015782;28;20037;-92
2024/02/20 06:21:27;;;;;;;11.35;1.80;;;;;;;8.85;100.00;100931.91;5035748;28;20144;-96
2024/02/20 06:23:54;;;;;;;16.60;2.08;;;;;;;8.84;100.00;100927.59;5010204;28;20064;-96
2024/02/20 06:26:22;;;;;;;18.08;1.63;;;;;;;8.87;100.00;100927.34;5043801;28;20052;-96
2024/02/20 06:28:48;;;;;;;11.88;1.58;;;;;;;8.88;100.00;100926.41;5011155;28;20087;-96
2024/02/20 06:31:14;;;;;;;14.18;2.55;;;;;;;8.95;100.00;100931.19;5039805;28;20037;-91
2024/02/20 06:33:43;;;;;;;14.35;1.98;;;;;;;8.96;100.00;100922.31;5028196;28;20036;-92
2024/02/20 06:36:10;;;;;;;21.65;2.55;;;;;;;8.94;100.00;100922.44;5030761;28;20104;-96
2024/02/20 06:38:39;;;;;;;15.02;2.08;;;;;;;8.92;100.00;100917.28;5020000;28;20485;-96
2024/02/20 06:41:05;;;;;;;18.90;2.63;;;;;;;8.97;100.00;100921.34;5044354;28;20029;-92
2024/02/20 06:43:31;;;;;;;15.05;2.13;;;;;;;8.97;100.00;100919.56;5032043;28;20056;-94
2024/02/20 06:45:56;;;;;;;17.90;2.05;;;;;;;8.91;100.00;100912.97;5032193;28;20178;-96
2024/02/20 06:48:23;;;;;;;19.17;2.33;;;;;;;8.97;100.00;100921.34;5036115;28;20032;-96
2024/02/20 06:50:52;;;;;;;17.45;2.22;;;;;;;8.96;100.00;100917.03;5022182;28;20033;-96
2024/02/20 06:53:18;;;;;;;20.55;2.30;;;;;;;9.00;100.00;100932.47;5008826;28;20029;-96
2024/02/20 06:55:47;;;;;;;17.17;3.25;;;;;;;8.94;100.00;100909.25;5021448;28;20088;-96
2024/02/20 06:58:14;;;;;;;27.35;3.70;;;;;;;8.99;100.00;100922.06;5022104;28;20028;-96
2024/02/20 07:00:40;;;;;;;18.70;3.80;;;;;;;9.02;100.00;100935.84;5031803;28;20072;-95
2024/02/20 07:03:07;;;;;;;13.40;2.28;;;;;;;9.04;100.00;100933.09;5034008;28;20041;-96
2024/02/20 07:05:33;;;;;;;14.82;2.53;;;;;;;9.05;100.00;100932.97;5045881;28;20048;-96
2024/02/20 07:07:59;;;;;;;18.33;2.55;;;;;;;9.11;100.00;100922.91;4999738;28;20489;-93
2024/02/20 07:10:25;;;;;;;15.13;2.08;;;;;;;9.09;100.00;100930.09;5016372;28;20432;-95
2024/02/20 07:12:51;;;;;;;21.42;4.10;;;;;;;9.12;100.00;100928.06;5015379;28;20033;-95
2024/02/20 07:15:16;;;;;;;19.40;3.30;;;;;;;9.13;100.00;100915.69;5013652;28;20036;-94
2024/02/20 07:17:42;;;;;;;19.83;2.70;;;;;;;9.13;100.00;100929.72;5026211;28;20075;-96
2024/02/20 07:20:09;;;;;;;23.58;3.15;;;;;;;9.14;100.00;100918.19;5030280;28;20032;-96
2024/02/20 07:22:36;;;;;;;17.23;2.03;;;;;;;9.15;100.00;100927.81;5033836;28;20628;-96
2024/02/20 07:25:03;;;;;;;13.98;2.67;;;;;;;9.18;100.00;100918.78;5028228;28;20276;-96
2024/02/20 07:27:31;;;;;;;19.55;2.85;;;;;;;9.22;100.00;100909.66;5011023;28;20083;-96
2024/02/20 07:29:59;;;;;;;18.80;2.30;;;;;;;9.22;100.00;100890.38;5035899;28;20501;-96
2024/02/20 07:32:28;;;;;;;19.42;3.15;;;;;;;9.22;100.00;100901.75;5031031;28;20031;-96
2024/02/20 07:34:55;;;;;;;21.40;2.78;;;;;;;9.22;100.00;100900.94;5034499;28;20040;-96
2024/02/20 07:37:24;;;;;;;18.75;2.63;;;;;;;9.22;100.00;100893.84;5036380;28;20045;-94
2024/02/20 07:39:49;;;;;;;17.65;3.08;;;;;;;9.26;100.00;100897.06;5021131;28;20389;-93
2024/02/20 07:42:16;;;;;;;22.55;3.38;;;;;;;9.26;100.00;100897.91;5029575;28;20060;-96
2024/02/20 07:44:47;;;;;;;27.30;2.97;;;;;;;9.27;100.00;100888.22;5033048;28;20044;-96
2024/02/20 07:47:14;;;;;;;21.95;2.72;;;;;;;9.28;100.00;100896.00;5032006;28;20040;-96
2024/02/20 07:49:49;;;;;;;17.55;2.75;;;;;;;9.27;100.00;100883.75;5032117;28;20400;-96
2024/02/20 07:52:15;;;;;;;14.57;2.47;;;;;;;9.29;100.00;100879.22;5021522;28;20041;-96
2024/02/20 07:54:41;;;;;;;17.20;2.63;;;;;;;9.29;100.00;100884.47;5023617;28;20040;-96
2024/02/20 07:57:13;;;;;;;16.50;2.30;;;;;;;9.30;100.00;100882.69;5022599;28;20040;-93
2024/02/20 07:59:39;;;;;;;20.27;2.92;;;;;;;9.31;100.00;100881.72;5030459;28;20044;-94
2024/02/20 08:02:09;;;;;;;24.77;3.97;;;;;;;9.35;100.00;100884.94;5049787;28;20035;-96
2024/02/20 08:04:36;;;;;;;15.45;2.40;;;;;;;9.33;100.00;100887.72;5036313;28;20052;-96
2024/02/20 08:07:02;;;;;;;16.08;3.15;;;;;;;9.33;100.00;100881.59;5013688;28;20029;-96
2024/02/20 08:09:28;;;;;;;21.30;2.70;;;;;;;9.35;100.00;100892.88;5019328;28;20041;-96
2024/02/20 08:15:37;;;;;;;21.63;2.53;;;;;;;9.38;100.00;100884.69;5034101;28;20320;-95
2024/02/20 08:18:04;;;;;;;21.05;2.95;;;;;;;9.36;100.00;100876.06;5016552;28;20048;-92
2024/02/20 08:20:29;;;;;;;19.00;2.63;;;;;;;9.37;100.00;100869.81;5047549;28;20037;-94
2024/02/20 08:22:56;;;;;;;21.55;2.67;;;;;;;9.35;100.00;100869.13;5050755;28;20073;-96
2024/02/20 08:25:22;;;;;;;15.63;2.67;;;;;;;9.32;100.00;100861.47;5034966;28;20181;-96
2024/02/20 08:27:53;;;;;;;22.17;2.80;;;;;;;9.37;100.00;100869.81;5035387;28;20117;-96
2024/02/20 08:30:23;;;;;;;24.45;3.10;;;;;;;9.40;100.00;100859.00;5051394;28;20044;-96
2024/02/20 08:32:50;;;;;;;13.82;2.58;;;;;;;9.41;100.00;100861.53;5043470;28;20080;-96
2024/02/20 08:35:17;;;;;;;16.25;2.38;;;;;;;9.47;100.00;100857.56;5039430;28;20056;-96
2024/02/20 08:37:46;;;;;;;19.10;2.65;;;;;;;9.53;100.00;100864.13;5036650;28;20033;-96
2024/02/20 08:40:15;;;;;;;19.50;2.72;;;;;;;9.54;100.00;100855.22;5062544;28;20037;-96
2024/02/20 08:42:41;;;;;;;22.55;3.40;;;;;;;9.60;100.00;100862.66;5046400;28;20029;-96
2024/02/20 08:45:08;;;;;;;26.30;3.25;;;;;;;9.68;100.00;100870.75;5066265;28;20051;-96
2024/02/20 08:47:38;;;;;;;26.05;3.65;;;;;;;9.72;100.00;100871.34;5034060;28;20036;-96
2024/02/20 08:50:08;;;;;;;16.80;3.10;;;;;;;9.78;100.00;100860.25;5047020;28;20025;-96
2024/02/20 08:52:34;;;;;;;22.17;2.92;;;;;;;9.80;100.00;100873.34;5022024;28;20063;-93
2024/02/20 08:55:00;;;;;;;27.98;3.15;;;;;;;9.80;100.00;100860.13;5049190;28;20040;-93
2024/02/20 08:57:27;;;;;;;19.30;3.35;;;;;;;9.86;100.00;100864.09;5028241;28;20045;-96
2024/02/20 08:59:53;;;;;;;18.00;3.35;;;;;;;9.85;100.00;100849.19;5042511;28;20040;-96
2024/02/20 09:02:19;;;;;;;23.17;2.90;;;;;;;9.89;100.00;100845.34;5027099;28;20055;-96
2024/02/20 09:04:45;;;;;;;24.77;2.85;;;;;;;9.91;100.00;100838.09;5056801;28;20127;-96
2024/02/20 09:07:14;;;;;;;23.15;3.05;;;;;;;9.98;100.00;100839.28;5065016;28;20036;-96
2024/02/20 09:09:40;;;;;;;21.77;2.67;;;;;;;9.99;100.00;100827.72;5024989;28;20072;-96
2024/02/20 09:12:08;;;;;;;25.80;3.53;;;;;;;10.09;100.00;100833.06;5020776;28;20085;-96
2024/02/20 09:14:34;;;;;;;20.25;3.55;;;;;;;10.16;100.00;100838.66;5041400;28;20045;-96
2024/02/20 09:17:00;;;;;;;22.08;2.35;;;;;;;10.17;100.00;100825.34;5047079;28;20101;-96
2024/02/20 09:19:26;;;;;;;27.02;3.83;;;;;;;10.25;100.00;100843.16;5039857;28;20036;-96
2024/02/20 09:21:53;;;;;;;28.38;2.83;;;;;;;10.33;100.00;100839.00;5044584;28;20032;-96
2024/02/20 09:24:19;;;;;;;16.30;2.58;;;;;;;10.40;100.00;100832.25;5041814;28;20029;-96
2024/02/20 09:26:48;;;;;;;35.92;4.15;;;;;;;10.49;100.00;100817.41;5039025;28;20041;-96
2024/02/20 09:29:14;;;;;;;22.48;2.70;;;;;;;10.56;100.00;100818.53;5025763;28;20492;-96
2024/02/20 09:31:40;;;;;;;27.67;3.20;;;;;;;10.62;100.00;100802.13;5055328;28;20052;-95
2024/02/20 09:34:06;;;;;;;25.02;2.92;;;;;;;10.75;100.00;100801.88;5041223;28;20036;-94
2024/02/20 09:36:32;;;;;;;25.45;3.70;;;;;;;10.81;100.00;100789.09;5027852;28;20059;-95
2024/02/20 09:38:58;;;;;;;25.42;3.28;;;;;;;10.86;100.00;100781.59;5032402;28;20037;-94
2024/02/20 09:41:26;;;;;;;24.70;3.65;;;;;;;10.91;100.00;100776.69;5021220;28;20036;-94
2024/02/20 09:43:53;;;;;;;24.30;4.32;;;;;;;10.95;100.00;100764.88;5060875;28;20051;-95
2024/02/20 09:46:20;;;;;;;26.98;3.70;;;;;;;11.01;100.00;100771.41;5038863;28;20401;-95
2024/02/20 09:48:48;;;;;;;29.77;3.67;;;;;;;11.07;100.00;100754.97;5053896;28;20068;-95
2024/02/20 09:51:18;;;;;;;27.65;3.38;;;;;;;11.07;100.00;100743.59;5019707;28;20233;-94
2024/02/20 09:53:45;;;;;;;28.05;4.65;;;;;;;11.07;100.00;100733.00;5037856;28;20037;-96
2024/02/20 09:56:14;;;;;;;22.20;4.13;;;;;;;11.17;100.00;100757.63;5023845;28;20362;-96
2024/02/20 09:58:40;;;;;;;26.52;3.70;;;;;;;11.18;100.00;100761.13;5056837;28;20036;-94
2024/02/20 10:01:07;;;;;;;24.70;4.15;;;;;;;11.20;100.00;100757.34;5041336;28;20041;-95
2024/02/20 10:03:40;;;;;;;27.75;3.72;;;;;;;11.20;100.00;100738.81;5042341;28;20370;-93
2024/02/20 10:06:26;;;;;;;29.60;3.55;;;;;;;11.23;100.00;100749.13;5047692;28;20127;-96
2024/02/20 10:08:54;;;;;;;19.38;3.35;;;;;;;11.27;100.00;100752.34;5048841;28;20036;-95
2024/02/20 10:11:20;;;;;;;35.05;4.43;;;;;;;11.32;100.00;100755.41;5023137;28;20025;-96
2024/02/20 10:13:50;;;;;;;29.00;3.72;;;;;;;11.37;100.00;100762.91;5018420;28;20098;-93
2024/02/20 10:16:16;;;;;;;18.27;2.88;;;;;;;11.31;100.00;100753.72;5031147;28;20032;-94
2024/02/20 10:18:58;;;;;;;28.67;3.47;;;;;;;11.42;100.00;100763.31;5035184;28;20094;-94
2024/02/20 10:21:25;;;;;;;25.08;3.15;;;;;;;11.37;100.00;100766.38;5040920;28;20040;-96
2024/02/20 10:24:07;;;;;;;23.10;4.32;;;;;;;11.46;100.00;100759.41;5036846;28;20043;-95
2024/02/20 10:26:34;;;;;;;19.15;2.38;;;;;;;11.43;100.00;100753.56;5039052;28;20426;-95
2024/02/20 10:29:03;;;;;;;23.50;3.03;;;;;;;11.43;100.00;100762.34;5019885;28;20012;-96
2024/02/20 10:31:33;;;;;;;15.15;3.15;;;;;;;11.41;100.00;100759.84;5033683;28;20043;-96
2024/02/20 10:33:59;;;;;;;21.17;3.67;;;;;;;11.40;100.00;100758.16;5044442;28;20033;-96
2024/02/20 10:36:26;;;;;;;19.15;3.38;;;;;;;11.44;100.00;100757.84;5026448;28;20037;-95
2024/02/20 10:39:11;;;;;;;23.60;3.92;;;;;;;11.48;100.00;100746.84;5049700;28;20043;-92
2024/02/20 10:41:38;;;;;;;27.05;3.70;;;;;;;11.45;100.00;100739.19;5041123;28;20139;-95
2024/02/20 10:44:05;;;;;;;24.08;3.47;;;;;;;11.47;100.00;100736.41;5043776;28;20039;-96
2024/02/20 10:46:37;;;;;;;21.90;3.40;;;;;;;11.49;100.00;100729.16;5035468;28;20029;-96
2024/02/20 10:49:30;;;;;;;27.80;3.50;;;;;;;11.55;100.00;100741.81;5066064;28;20036;-96
2024/02/20 10:51:57;;;;;;;19.52;4.05;;;;;;;11.48;100.00;100746.84;5038696;28;20070;-96
2024/02/20 10:54:30;;;;;;;18.17;3.38;;;;;;;11.49;100.00;100734.44;5054026;28;20464;-96
2024/02/20 10:56:57;;;;;;;27.67;3.65;;;;;;;11.44;100.00;100736.69;5037213;28;20063;-96
2024/02/20 10:59:25;;;;;;;32.55;3.88;;;;;;;11.45;100.00;100717.19;5027003;28;20083;-96
2024/02/20 11:01:51;;;;;;;21.77;2.78;;;;;;;11.46;100.00;100714.41;5023002;28;20029;-96
2024/02/20 11:04:18;;;;;;;30.10;3.47;;;;;;;11.48;100.00;100724.84;5027688;28;20041;-96
2024/02/20 11:06:48;;;;;;;35.47;3.83;;;;;;;11.55;100.00;100741.81;5057341;28;20032;-95
2024/02/20 11:09:17;;;;;;;24.20;3.55;;;;;;;11.48;100.00;100725.66;5048895;28;20068;-96
2024/02/20 11:11:50;;;;;;;23.02;3.80;;;;;;;11.43;100.00;100722.63;5053619;28;20036;-95
2024/02/20 11:14:26;;;;;;;24.08;4.03;;;;;;;11.49;100.00;100722.06;5036245;28;20036;-95
2024/02/20 11:16:52;;;;;;;24.77;3.58;;;;;;;11.44;100.00;100731.41;5030196;28;20033;-95
2024/02/20 11:19:25;;;;;;;16.63;2.70;;;;;;;11.47;100.00;100723.16;5049304;28;20107;-95
2024/02/20 11:21:52;;;;;;;16.35;2.67;;;;;;;11.43;100.00;100712.06;5051347;28;20041;-94
2024/02/20 11:24:18;;;;;;;18.75;3.17;;;;;;;11.49;100.00;100719.41;5014015;28;20029;-96
2024/02/20 11:26:47;;;;;;;21.23;3.25;;;;;;;11.48;100.00;100715.09;5037204;28;20032;-94
2024/02/20 11:29:14;;;;;;;17.85;2.70;;;;;;;11.56;100.00;100716.19;5043356;28;20526;-95
2024/02/20 11:31:41;;;;;;;17.42;2.17;;;;;;;11.61;100.00;100708.66;5048001;28;20038;-96
2024/02/20 11:34:21;;;;;;;17.98;2.10;;;;;;;11.66;100.00;100712.53;5037605;28;20101;-94
2024/02/20 11:36:49;;;;;;;19.45;2.60;;;;;;;11.65;100.00;100696.78;5027368;28;20049;-96
2024/02/20 11:39:16;;;;;;;13.80;2.25;;;;;;;11.69;100.00;100703.44;5041047;28;21011;-94
2024/02/20 11:41:47;;;;;;;14.40;2.58;;;;;;;11.67;100.00;100692.19;5025231;28;20106;-96
2024/02/20 11:44:15;;;;;;;12.52;1.80;;;;;;;11.62;100.00;100691.78;5015761;28;20075;-94
2024/02/20 11:46:44;;;;;;;15.05;2.28;;;;;;;11.63;100.00;100689.00;5038795;28;20131;-94
2024/02/20 11:49:20;;;;;;;12.07;1.83;;;;;;;11.62;100.00;100678.53;5021391;28;20067;-95
2024/02/20 11:51:46;;;;;;;9.65;1.50;;;;;;;11.56;100.00;100674.69;5026378;28;20085;-95
2024/02/20 11:54:12;;;;;;;10.82;1.98;;;;;;;11.56;100.00;100677.31;5022945;28;20040;-96
2024/02/20 11:56:39;;;;;;;10.77;1.40;;;;;;;11.54;100.00;100682.78;5045600;28;20043;-96
2024/02/20 11:59:08;;;;;;;12.18;1.60;;;;;;;11.57;100.00;100681.63;5038115;28;20036;-96
2024/02/20 12:01:34;;;;;;;10.80;1.40;;;;;;;11.49;100.00;100668.28;5040843;28;20378;-86
2024/02/20 12:04:06;;;;;;;14.52;1.63;;;;;;;11.48;100.00;100663.97;5038420;28;20044;-96
2024/02/20 12:06:35;;;;;;;8.60;1.17;;;;;;;11.46;100.00;100664.13;5024045;28;20618;-96
2024/02/20 12:09:03;;;;;;;13.85;2.38;;;;;;;11.50;100.00;100673.44;5032997;28;20071;-96
2024/02/20 12:11:30;;;;;;;9.30;1.50;;;;;;;11.44;100.00;100665.22;5067645;28;20036;-96
2024/02/20 12:14:05;;;;;;;14.18;2.70;;;;;;;11.50;100.00;100669.94;5022669;28;20025;-96
2024/02/20 12:16:36;;;;;;;10.90;1.47;;;;;;;11.46;100.00;100663.28;5040267;28;20526;-96
2024/02/20 12:19:03;;;;;;;7.72;1.10;;;;;;;11.46;100.00;100658.81;5060779;28;20095;-96
2024/02/20 12:21:31;;;;;;;9.32;1.60;;;;;;;11.51;100.00;100664.53;5032491;28;20037;-94
2024/02/20 12:23:59;;;;;;;7.47;0.90;;;;;;;11.50;100.00;100659.34;5054626;28;20040;-96
2024/02/20 12:26:27;;;;;;;5.65;1.42;;;;;;;11.52;100.00;100660.88;5026532;28;20042;-96
2024/02/20 12:28:54;;;;;;;5.03;0.98;;;;;;;11.52;100.00;100663.53;5033087;28;20052;-96
2024/02/20 12:31:32;;;;;;;7.97;1.10;;;;;;;11.48;100.00;100656.03;5017780;28;20091;-96
2024/02/20 12:34:02;;;;;;;4.90;0.88;;;;;;;11.54;100.00;100660.75;5020930;28;20051;-96
2024/02/20 12:36:30;;;;;;;10.45;1.20;;;;;;;11.53;100.00;100662.53;5018115;28;20371;-95
2024/02/20 12:38:56;;;;;;;4.30;0.90;;;;;;;11.58;100.00;100662.13;5014939;28;20053;-96
2024/02/20 12:41:22;;;;;;;4.53;0.80;;;;;;;11.56;100.00;100660.59;5021516;28;20485;-95
2024/02/20 12:43:48;;;;;;;3.53;0.73;;;;;;;11.60;100.00;100659.31;5020332;28;20034;-93
2024/02/20 12:46:14;;;;;;;5.68;0.70;;;;;;;11.58;100.00;100650.72;5038426;28;20032;-96
2024/02/20 12:48:41;;;;;;;4.95;0.77;;;;;;;11.60;100.00;100648.72;5018726;28;20028;-95
2024/02/20 12:51:07;;;;;;;4.40;0.70;;;;;;;11.60;100.00;100654.03;5056397;28;20040;-96
2024/02/20 12:53:33;;;;;;;6.90;0.70;;;;;;;11.63;100.00;100659.03;5016367;28;20040;-96
2024/02/20 12:55:59;;;;;;;6.47;0.65;;;;;;;11.65;100.00;100652.63;5026987;28;20115;-93